createdAt,value
2018-10-17T00:02:02.965Z,71.12
2018-10-17T00:04:37.620Z,71.24
2018-10-17T00:07:12.365Z,71.75
2018-10-17T00:09:46.828Z,70.73
2018-10-17T00:12:21.371Z,70.44
2018-10-17T00:14:55.986Z,69.91
2018-10-17T00:17:30.628Z,70.06
2018-10-17T00:20:05.881Z,70.01
2018-10-17T00:22:40.235Z,69.39
2018-10-17T00:25:14.827Z,69.72
2018-10-17T00:27:49.365Z,69.23
2018-10-17T00:30:24.166Z,69.32
2018-10-17T00:32:58.993Z,69.98
2018-10-17T00:35:34.009Z,69.77
2018-10-17T00:38:08.503Z,69.83
2018-10-17T00:40:43.122Z,69.99
2018-10-17T00:43:31.213Z,70.58
2018-10-17T00:46:06.003Z,70.37
2018-10-17T00:48:40.659Z,70.02
2018-10-17T00:51:15.283Z,69.42
2018-10-17T00:53:50.332Z,69.37
2018-10-17T00:56:24.876Z,69.42
2018-10-17T00:59:07.858Z,69.28
2018-10-17T01:01:42.332Z,69.89
2018-10-17T01:04:16.999Z,70.02
2018-10-17T01:06:51.922Z,69.31
2018-10-17T01:09:26.601Z,69.40
2018-10-17T01:12:01.254Z,69.22
2018-10-17T01:14:35.951Z,69.72
2018-10-17T01:17:10.650Z,69.79
2018-10-17T01:19:45.217Z,69.82
2018-10-17T01:22:19.832Z,70.11
2018-10-17T01:24:54.418Z,69.87
2018-10-17T01:27:29.185Z,69.44
2018-10-17T01:30:03.690Z,69.74
2018-10-17T01:32:38.603Z,70.09
2018-10-17T01:35:13.233Z,70.15
2018-10-17T01:38:06.382Z,70.16
2018-10-17T01:40:40.901Z,70.54
2018-10-17T01:43:15.490Z,70.45
2018-10-17T01:45:50.164Z,70.59
2018-10-17T01:48:24.590Z,71.00
2018-10-17T01:51:00.006Z,70.94
2018-10-17T01:53:34.657Z,70.68
2018-10-17T01:56:09.172Z,70.74
2018-10-17T01:58:43.725Z,70.69
2018-10-17T02:01:18.381Z,71.01
2018-10-17T02:03:52.957Z,71.29
2018-10-17T02:06:27.530Z,71.41
2018-10-17T02:09:02.236Z,71.49
2018-10-17T02:11:37.396Z,70.92
2018-10-17T02:14:11.900Z,70.48
2018-10-17T02:16:46.940Z,70.98
2018-10-17T02:19:21.448Z,70.39
2018-10-17T02:21:56.120Z,69.92
2018-10-17T02:24:30.673Z,69.46
2018-10-17T02:27:05.405Z,68.96
2018-10-17T02:29:40.111Z,68.74
2018-10-17T02:32:14.756Z,68.49
2018-10-17T02:34:54.689Z,68.38
2018-10-17T02:37:29.285Z,69.22
2018-10-17T02:40:04.033Z,69.31
2018-10-17T02:42:46.030Z,69.39
2018-10-17T02:45:20.737Z,69.11
2018-10-17T02:47:55.546Z,69.86
2018-10-17T02:50:30.139Z,71.04
2018-10-17T02:53:04.971Z,70.84
2018-10-17T02:55:39.476Z,69.94
2018-10-17T02:58:14.135Z,69.62
2018-10-17T03:00:48.628Z,69.07
2018-10-17T03:03:23.276Z,69.39
2018-10-17T03:05:58.710Z,68.88
2018-10-17T03:08:33.460Z,68.74
2018-10-17T03:11:13.237Z,68.58
2018-10-17T03:13:47.829Z,68.30
2018-10-17T03:16:23.261Z,68.54
2018-10-17T03:18:58.431Z,68.26
2018-10-17T03:21:33.437Z,68.62
2018-10-17T03:24:08.442Z,68.73
2018-10-17T03:26:43.561Z,68.31
2018-10-17T03:29:18.798Z,68.52
2018-10-17T03:31:53.482Z,68.36
2018-10-17T03:34:28.164Z,68.15
2018-10-17T03:37:21.876Z,67.94
2018-10-17T03:39:56.526Z,68.31
2018-10-17T03:42:31.335Z,68.55
2018-10-17T03:45:07.585Z,68.44
2018-10-17T03:47:53.688Z,68.63
2018-10-17T03:50:28.276Z,68.02
2018-10-17T03:53:04.132Z,67.98
2018-10-17T03:55:39.125Z,67.99
2018-10-17T03:58:14.225Z,67.97
2018-10-17T04:00:49.704Z,67.83
2018-10-17T04:03:24.292Z,68.10
2018-10-17T04:05:59.170Z,68.09
2018-10-17T04:08:34.173Z,68.16
2018-10-17T04:11:08.762Z,69.36
2018-10-17T04:13:43.697Z,70.06
2018-10-17T04:16:18.410Z,70.21
2018-10-17T04:18:53.131Z,70.88
2018-10-17T04:21:27.767Z,71.35
2018-10-17T04:24:03.537Z,72.11
2018-10-17T04:26:37.944Z,71.14
2018-10-17T04:29:12.933Z,70.11
2018-10-17T04:31:48.287Z,69.65
2018-10-17T04:34:22.944Z,69.28
2018-10-17T04:36:58.434Z,69.09
2018-10-17T04:39:33.244Z,68.52
2018-10-17T04:42:08.270Z,68.52
2018-10-17T04:44:42.956Z,68.31
2018-10-17T04:47:19.199Z,68.45
2018-10-17T04:49:54.877Z,68.52
2018-10-17T04:52:29.478Z,68.13
2018-10-17T04:55:04.142Z,68.51
2018-10-17T04:57:38.822Z,68.90
2018-10-17T05:00:13.950Z,68.76
2018-10-17T05:02:48.378Z,68.63
2018-10-17T05:05:23.095Z,68.73
2018-10-17T05:07:57.642Z,68.70
2018-10-17T05:10:32.472Z,69.34
2018-10-17T05:13:08.338Z,70.31
2018-10-17T05:15:42.951Z,71.75
2018-10-17T05:18:17.422Z,72.13
2018-10-17T05:20:52.414Z,71.15
2018-10-17T05:23:26.848Z,70.40
2018-10-17T05:26:01.506Z,70.79
2018-10-17T05:28:36.269Z,71.38
2018-10-17T05:31:11.307Z,71.09
2018-10-17T05:33:45.760Z,70.77
2018-10-17T05:36:20.441Z,70.51
2018-10-17T05:38:55.407Z,69.74
2018-10-17T05:41:29.953Z,69.43
2018-10-17T05:47:12.449Z,69.54
2018-10-17T05:49:46.920Z,69.22
2018-10-17T05:52:21.713Z,68.76
2018-10-17T05:54:56.753Z,68.42
2018-10-17T05:57:31.540Z,68.30
2018-10-17T06:00:07.048Z,68.51
2018-10-17T06:02:41.474Z,68.50
2018-10-17T06:05:16.338Z,68.43
2018-10-17T06:07:50.832Z,69.31
2018-10-17T06:10:25.839Z,70.19
2018-10-17T06:13:01.030Z,70.85
2018-10-17T06:15:35.808Z,71.35
2018-10-17T06:18:10.868Z,72.37
2018-10-17T06:20:45.503Z,72.43
2018-10-17T06:23:28.052Z,72.51
2018-10-17T06:26:14.392Z,71.57
2018-10-17T06:28:49.344Z,71.13
2018-10-17T06:31:24.040Z,73.12
2018-10-17T06:33:59.084Z,72.65
2018-10-17T06:36:33.700Z,73.63
2018-10-17T06:39:10.735Z,74.09
2018-10-17T06:41:45.138Z,72.40
2018-10-17T06:44:19.828Z,72.45
2018-10-17T06:46:54.623Z,72.42
2018-10-17T06:49:29.367Z,70.45
2018-10-17T06:55:02.965Z,68.27
2018-10-17T06:57:38.056Z,68.12
2018-10-17T07:00:12.625Z,67.50
2018-10-17T07:02:48.254Z,66.41
2018-10-17T07:05:22.824Z,66.27
2018-10-17T07:07:57.440Z,64.98
2018-10-17T07:10:32.881Z,61.78
2018-10-17T07:13:29.681Z,59.00
2018-10-17T07:16:04.249Z,50.74
2018-10-17T07:18:39.068Z,47.87
2018-10-17T07:21:13.658Z,45.18
2018-10-17T07:23:48.236Z,43.82
2018-10-17T07:26:22.820Z,45.34
2018-10-17T07:28:57.466Z,46.22
2018-10-17T07:31:32.325Z,48.20
2018-10-17T07:34:06.964Z,51.30
2018-10-17T07:36:42.162Z,53.11
2018-10-17T07:39:16.850Z,54.64
2018-10-17T07:41:51.535Z,56.13
2018-10-17T07:44:26.358Z,57.65
2018-10-17T07:47:01.321Z,58.08
2018-10-17T07:49:36.082Z,58.57
2018-10-17T07:52:11.080Z,59.48
2018-10-17T07:54:45.527Z,59.70
2018-10-17T07:57:20.875Z,60.03
2018-10-17T07:59:55.693Z,60.02
2018-10-17T08:02:30.381Z,59.86
2018-10-17T08:05:04.952Z,59.64
2018-10-17T08:07:39.582Z,59.74
2018-10-17T08:10:14.513Z,59.53
2018-10-17T08:12:49.478Z,60.08
2018-10-17T08:15:26.241Z,59.61
2018-10-17T08:18:00.932Z,60.26
2018-10-17T08:20:35.669Z,59.09
2018-10-17T08:23:10.940Z,58.82
2018-10-17T08:25:45.696Z,59.26
2018-10-17T08:28:20.326Z,59.30
2018-10-17T08:30:55.311Z,58.98
2018-10-17T08:33:29.772Z,59.56
2018-10-17T08:36:04.426Z,58.41
2018-10-17T08:38:39.589Z,58.11
2018-10-17T08:41:14.577Z,58.60
2018-10-17T08:43:49.454Z,58.68
2018-10-17T08:46:26.167Z,57.94
2018-10-17T08:49:01.061Z,57.94
2018-10-17T08:54:36.749Z,57.47
2018-10-17T08:57:11.558Z,57.04
2018-10-17T08:59:46.712Z,56.08
2018-10-17T09:02:21.272Z,55.30
2018-10-17T09:04:56.260Z,53.92
2018-10-17T09:07:37.701Z,53.30
2018-10-17T09:10:12.585Z,53.48
2018-10-17T09:12:47.109Z,52.32
2018-10-17T09:15:21.709Z,52.50
2018-10-17T09:17:56.718Z,51.52
2018-10-17T09:20:31.425Z,51.09
2018-10-17T09:23:06.721Z,49.70
2018-10-17T09:25:41.510Z,52.18
2018-10-17T09:28:16.662Z,51.52
2018-10-17T09:30:51.533Z,53.50
2018-10-17T09:33:26.055Z,53.41
2018-10-17T09:36:00.635Z,53.80
2018-10-17T09:38:35.924Z,54.40
2018-10-17T09:41:10.701Z,54.23
2018-10-17T09:43:45.333Z,54.30
2018-10-17T09:46:19.965Z,54.20
2018-10-17T09:48:54.636Z,53.74
2018-10-17T09:51:29.245Z,54.18
2018-10-17T09:54:03.630Z,55.23
2018-10-17T09:56:38.266Z,53.25
2018-10-17T09:59:12.861Z,52.85
2018-10-17T10:01:51.532Z,52.60
2018-10-17T10:04:29.317Z,53.49
2018-10-17T10:07:03.839Z,54.25
2018-10-17T10:09:38.432Z,53.60
2018-10-17T10:12:13.292Z,53.61
2018-10-17T10:14:47.864Z,52.35
2018-10-17T10:17:22.586Z,52.65
2018-10-17T10:19:57.725Z,53.91
2018-10-17T10:22:32.221Z,54.61
2018-10-17T10:25:06.971Z,54.23
2018-10-17T10:27:41.496Z,53.83
2018-10-17T10:30:16.128Z,53.61
2018-10-17T10:32:51.861Z,53.84
2018-10-17T10:35:26.996Z,54.61
2018-10-17T10:38:01.655Z,54.05
2018-10-17T10:40:36.490Z,55.14
2018-10-17T10:46:09.776Z,54.04
2018-10-17T10:54:42.636Z,55.05
2018-10-17T10:57:17.354Z,55.15
2018-10-17T10:59:52.280Z,55.50
2018-10-17T11:02:27.057Z,55.07
2018-10-17T11:05:01.950Z,54.92
2018-10-17T11:07:36.758Z,54.03
2018-10-17T11:10:11.286Z,53.45
2018-10-17T11:12:45.847Z,53.07
2018-10-17T11:15:20.536Z,53.14
2018-10-17T11:17:55.294Z,52.70
2018-10-17T11:20:29.848Z,52.42
2018-10-17T11:23:04.532Z,52.75
2018-10-17T11:25:39.216Z,52.56
2018-10-17T11:28:14.274Z,51.74
2018-10-17T11:33:53.893Z,51.84
2018-10-17T11:36:28.567Z,51.33
2018-10-17T11:39:03.290Z,51.53
2018-10-17T11:41:38.007Z,51.30
2018-10-17T11:44:12.629Z,51.12
2018-10-17T11:46:47.148Z,49.57
2018-10-17T11:49:21.866Z,48.48
2018-10-17T11:51:57.145Z,49.34
2018-10-17T11:54:31.950Z,49.18
2018-10-17T11:57:06.565Z,49.78
2018-10-17T11:59:41.560Z,49.50
2018-10-17T12:02:16.241Z,49.72
2018-10-17T12:04:51.161Z,48.95
2018-10-17T12:07:25.921Z,49.65
2018-10-17T12:10:00.781Z,49.45
2018-10-17T12:12:35.451Z,48.03
2018-10-17T12:15:12.469Z,49.42
2018-10-17T12:17:46.885Z,50.01
2018-10-17T12:20:21.529Z,49.10
2018-10-17T12:22:56.545Z,49.93
2018-10-17T12:25:31.339Z,50.64
2018-10-17T12:28:06.132Z,50.17
2018-10-17T12:30:40.969Z,49.46
2018-10-17T12:33:15.509Z,48.62
2018-10-17T12:35:50.097Z,49.00
2018-10-17T12:38:24.791Z,49.29
2018-10-17T12:40:59.828Z,47.87
2018-10-17T12:43:34.293Z,47.91
2018-10-17T12:46:08.833Z,47.95
2018-10-17T12:48:43.475Z,48.30
2018-10-17T12:51:18.080Z,47.30
2018-10-17T12:53:52.653Z,48.22
2018-10-17T12:56:27.246Z,48.47
2018-10-17T12:59:01.947Z,47.69
2018-10-17T13:01:36.361Z,47.70
2018-10-17T13:04:11.084Z,47.09
2018-10-17T13:06:45.600Z,48.02
2018-10-17T13:09:20.249Z,48.03
2018-10-17T13:11:55.158Z,47.88
2018-10-17T13:14:30.092Z,48.51
2018-10-17T13:17:04.796Z,47.95
2018-10-17T13:19:39.756Z,49.10
2018-10-17T13:22:14.988Z,49.13
2018-10-17T13:24:49.449Z,48.91
2018-10-17T13:27:24.124Z,48.73
2018-10-17T13:29:58.921Z,49.08
2018-10-17T13:32:33.799Z,49.27
2018-10-17T13:35:08.528Z,49.51
2018-10-17T13:37:42.990Z,49.06
2018-10-17T13:40:17.566Z,49.03
2018-10-17T13:42:52.185Z,49.34
2018-10-17T13:45:26.605Z,49.60
2018-10-17T13:48:01.360Z,49.26
2018-10-17T13:50:36.188Z,49.42
2018-10-17T13:53:10.857Z,49.37
2018-10-17T13:56:03.513Z,49.49
2018-10-17T13:58:38.032Z,49.94
2018-10-17T14:01:12.678Z,49.72
2018-10-17T14:03:47.536Z,49.98
2018-10-17T14:06:22.168Z,50.59
2018-10-17T14:08:57.057Z,50.80
2018-10-17T14:11:31.792Z,52.07
2018-10-17T14:14:06.720Z,51.78
2018-10-17T14:16:41.254Z,51.44
2018-10-17T14:19:15.897Z,53.93
2018-10-17T14:21:50.384Z,52.03
2018-10-17T14:24:25.104Z,54.33
2018-10-17T14:26:59.701Z,53.92
2018-10-17T14:29:34.268Z,51.61
2018-10-17T14:32:09.084Z,53.24
2018-10-17T14:34:43.897Z,51.73
2018-10-17T14:37:18.940Z,51.04
2018-10-17T14:39:53.448Z,51.07
2018-10-17T14:42:28.044Z,51.16
2018-10-17T14:45:02.753Z,51.36
2018-10-17T14:47:37.953Z,52.13
2018-10-17T14:50:12.696Z,52.94
2018-10-17T14:52:47.272Z,53.62
2018-10-17T14:55:21.961Z,53.53
2018-10-17T14:57:56.516Z,54.57
2018-10-17T15:00:31.287Z,54.27
2018-10-17T15:03:05.928Z,54.74
2018-10-17T15:05:40.604Z,55.21
2018-10-17T15:08:15.119Z,55.42
2018-10-17T15:10:50.383Z,55.96
2018-10-17T15:13:24.704Z,55.91
2018-10-17T15:15:59.541Z,55.76
2018-10-17T15:18:34.130Z,55.68
2018-10-17T15:21:08.756Z,55.67
2018-10-17T15:23:43.266Z,56.27
2018-10-17T15:26:18.028Z,56.69
2018-10-17T15:28:52.428Z,56.99
2018-10-17T15:31:27.711Z,56.44
2018-10-17T15:34:02.417Z,56.80
2018-10-17T15:36:37.001Z,56.55
2018-10-17T15:39:12.594Z,55.67
2018-10-17T15:41:47.307Z,56.21
2018-10-17T15:47:33.868Z,56.42
2018-10-17T15:50:08.505Z,56.73
2018-10-17T15:52:53.358Z,56.57
2018-10-17T15:55:38.309Z,56.40
2018-10-17T15:58:13.044Z,56.96
2018-10-17T16:01:00.973Z,57.37
2018-10-17T16:06:57.529Z,57.69
2018-10-17T16:09:38.722Z,58.28
2018-10-17T16:12:15.185Z,59.42
2018-10-17T16:14:49.857Z,59.49
2018-10-17T16:17:24.433Z,59.91
2018-10-17T16:20:01.889Z,60.19
2018-10-17T16:22:36.658Z,60.22
2018-10-17T16:25:11.177Z,60.92
2018-10-17T16:27:45.888Z,61.24
2018-10-17T16:30:21.458Z,61.31
2018-10-17T16:32:56.235Z,61.66
2018-10-17T16:35:30.739Z,62.56
2018-10-17T16:38:05.624Z,63.01
2018-10-17T16:40:40.822Z,63.12
2018-10-17T16:43:15.415Z,63.63
2018-10-17T16:45:49.948Z,63.56
2018-10-17T16:48:31.817Z,64.02
2018-10-17T16:51:06.677Z,64.06
2018-10-17T16:53:41.323Z,64.32
2018-10-17T16:56:16.913Z,65.19
2018-10-17T16:58:51.721Z,64.84
2018-10-17T17:01:26.463Z,65.22
2018-10-17T17:04:01.158Z,66.13
2018-10-17T17:06:35.900Z,66.18
2018-10-17T17:09:11.507Z,65.72
2018-10-17T17:11:45.982Z,66.35
2018-10-17T17:14:20.567Z,66.60
2018-10-17T17:16:55.208Z,66.32
2018-10-17T17:19:30.365Z,67.41
2018-10-17T17:22:05.120Z,67.19
2018-10-17T17:24:39.753Z,67.53
2018-10-17T17:27:15.637Z,67.19
2018-10-17T17:29:50.413Z,67.80
2018-10-17T17:32:24.997Z,67.65
2018-10-17T17:34:59.593Z,67.71
2018-10-17T17:37:34.190Z,67.45
2018-10-17T17:40:10.053Z,68.14
2018-10-17T17:43:09.070Z,68.21
2018-10-17T17:45:44.614Z,68.52
2018-10-17T17:48:31.550Z,68.38
2018-10-17T17:51:07.178Z,67.92
2018-10-17T17:53:41.560Z,68.99
2018-10-17T17:56:16.738Z,69.56
2018-10-17T17:58:51.476Z,68.96
2018-10-17T18:01:26.099Z,69.61
2018-10-17T18:04:00.848Z,69.98
2018-10-17T18:06:35.563Z,70.26
2018-10-17T18:09:11.869Z,70.31
2018-10-17T18:11:46.389Z,70.75
2018-10-17T18:14:20.939Z,71.01
2018-10-17T18:16:55.502Z,71.62
2018-10-17T18:19:33.909Z,71.64
2018-10-17T18:22:08.467Z,72.25
2018-10-17T18:24:43.109Z,72.25
2018-10-17T18:27:17.741Z,72.34
2018-10-17T18:29:52.404Z,73.17
2018-10-17T18:32:27.071Z,73.60
2018-10-17T18:35:01.732Z,73.69
2018-10-17T18:37:36.852Z,73.93
2018-10-17T18:40:12.467Z,74.21
2018-10-17T18:42:47.442Z,74.51
2018-10-17T18:45:22.641Z,74.60
2018-10-17T18:47:57.503Z,74.64
2018-10-17T18:50:33.066Z,75.12
2018-10-17T18:53:08.349Z,75.68
2018-10-17T18:55:43.131Z,75.22
2018-10-17T18:58:17.751Z,75.25
2018-10-17T19:00:52.739Z,75.71
2018-10-17T19:03:27.416Z,75.65
2018-10-17T19:06:02.485Z,76.00
2018-10-17T19:08:42.118Z,76.39
2018-10-17T19:11:16.839Z,76.49
2018-10-17T19:13:51.927Z,76.67
2018-10-17T19:16:39.518Z,77.10
2018-10-17T19:19:15.134Z,79.42
2018-10-17T19:21:49.686Z,79.85
2018-10-17T19:24:24.459Z,80.90
2018-10-17T19:26:59.533Z,81.61
2018-10-17T19:29:34.909Z,82.00
2018-10-17T19:32:09.460Z,82.25
2018-10-17T19:34:44.168Z,81.14
2018-10-17T19:37:18.724Z,81.54
2018-10-17T19:39:53.758Z,81.24
2018-10-17T19:42:28.389Z,81.53
2018-10-17T19:45:02.992Z,81.54
2018-10-17T19:47:37.445Z,81.12
2018-10-17T19:50:11.929Z,81.63
2018-10-17T19:52:47.418Z,81.72
2018-10-17T19:55:22.071Z,81.69
2018-10-17T19:57:56.694Z,81.90
2018-10-17T20:00:31.132Z,81.77
2018-10-17T20:03:06.306Z,82.09
2018-10-17T20:05:41.011Z,82.37
2018-10-17T20:08:15.664Z,82.72
2018-10-17T20:10:51.862Z,83.50
2018-10-17T20:13:26.771Z,83.44
2018-10-17T20:16:01.581Z,83.64
2018-10-17T20:18:36.380Z,84.13
2018-10-17T20:21:10.956Z,84.31
2018-10-17T20:23:45.735Z,84.82
2018-10-17T20:26:20.565Z,85.50
2018-10-17T20:28:55.127Z,85.19
2018-10-17T20:31:29.884Z,85.12
2018-10-17T20:34:04.465Z,84.90
2018-10-17T20:36:39.208Z,84.96
2018-10-17T20:39:15.084Z,86.07
2018-10-17T20:41:49.620Z,86.72
2018-10-17T20:44:24.122Z,87.17
2018-10-17T20:46:59.005Z,87.22
2018-10-17T20:49:33.837Z,87.49
2018-10-17T20:52:08.348Z,87.67
2018-10-17T20:54:43.071Z,87.68
2018-10-17T20:57:17.793Z,88.22
2018-10-17T20:59:52.688Z,88.52
2018-10-17T21:02:27.618Z,89.13
2018-10-17T21:05:02.312Z,88.95
2018-10-17T21:07:36.941Z,89.04
2018-10-17T21:10:11.560Z,88.83
2018-10-17T21:12:46.225Z,89.15
2018-10-17T21:15:20.985Z,89.17
2018-10-17T21:17:55.645Z,89.01
2018-10-17T21:20:30.664Z,89.18
2018-10-17T21:23:05.208Z,89.61
2018-10-17T21:25:40.337Z,89.64
2018-10-17T21:28:14.902Z,89.87
2018-10-17T21:30:50.025Z,89.99
2018-10-17T21:33:25.026Z,89.65
2018-10-17T21:35:59.578Z,90.13
2018-10-17T21:38:34.185Z,90.20
2018-10-17T21:41:09.066Z,90.28
2018-10-17T21:43:44.153Z,90.70
2018-10-17T21:46:18.781Z,91.22
2018-10-17T21:48:53.332Z,91.68
2018-10-17T21:51:27.890Z,91.63
2018-10-17T21:54:02.476Z,91.55
2018-10-17T21:56:37.132Z,91.40
2018-10-17T21:59:11.876Z,91.45
2018-10-17T22:01:46.605Z,91.48
2018-10-17T22:04:21.181Z,92.32
2018-10-17T22:06:55.649Z,92.23
2018-10-17T22:09:30.169Z,92.25
2018-10-17T22:12:04.707Z,92.28
2018-10-17T22:14:39.287Z,92.64
2018-10-17T22:17:13.985Z,93.10
2018-10-17T22:19:49.307Z,93.51
2018-10-17T22:22:23.879Z,93.71
2018-10-17T22:24:58.397Z,94.11
2018-10-17T22:27:33.320Z,93.97
2018-10-17T22:30:08.076Z,93.75
2018-10-17T22:32:42.613Z,94.59
2018-10-17T22:35:17.057Z,95.27
2018-10-17T22:37:52.537Z,95.44
2018-10-17T22:40:27.429Z,95.92
2018-10-17T22:43:02.209Z,96.42
2018-10-17T22:45:36.681Z,97.20
2018-10-17T22:48:11.441Z,97.14
2018-10-17T22:50:45.980Z,97.61
2018-10-17T22:53:20.916Z,97.65
2018-10-17T22:55:55.463Z,98.06
2018-10-17T22:58:30.217Z,98.26
2018-10-17T23:01:05.098Z,98.53
2018-10-17T23:03:39.636Z,98.82
2018-10-17T23:06:14.282Z,98.92
2018-10-17T23:08:49.377Z,99.98
2018-10-17T23:11:23.908Z,100.00
2018-10-17T23:13:58.626Z,100.00
2018-10-17T23:16:33.240Z,100.00
2018-10-17T23:19:08.632Z,100.00
2018-10-17T23:21:43.520Z,100.00
2018-10-17T23:24:18.090Z,100.00
2018-10-17T23:26:53.612Z,100.00
2018-10-17T23:29:28.230Z,100.00
2018-10-17T23:32:03.068Z,100.00
2018-10-17T23:34:37.778Z,100.00
2018-10-17T23:37:13.754Z,100.00
2018-10-17T23:39:59.376Z,100.00
2018-10-17T23:42:34.188Z,100.00
2018-10-17T23:45:08.929Z,100.00
2018-10-17T23:47:43.589Z,100.00
2018-10-17T23:50:18.671Z,100.00
2018-10-17T23:52:53.249Z,100.00
2018-10-17T23:55:27.827Z,100.00
2018-10-17T23:58:02.589Z,100.00
